Time;durP1;ratioP1;P1;durP2;ratioP2;P2;SDS_P1;SDS_P2;PMS_P1;PMS_P2;Temp;Humidity;BMP_temperature;BMP_pressure;BME280_temperature;BME280_humidity;BME280_pressure;Samples;Min_cycle;Max_cycle;Signal;HPM_P1;HPM_P2
2023/12/11 00:00:05;;;;;;;2.43;1.43;;;5.60;99.90;;;;;;4946070;28;20251;-57
2023/12/11 00:02:31;;;;;;;5.83;1.63;;;5.70;99.90;;;;;;4949593;28;20242;-58
2023/12/11 00:04:57;;;;;;;6.73;2.07;;;5.70;99.90;;;;;;4940699;28;20422;-57
2023/12/11 00:07:23;;;;;;;3.87;1.67;;;5.70;99.90;;;;;;4950832;28;20445;-58
2023/12/11 00:09:48;;;;;;;1.23;1.10;;;5.80;99.90;;;;;;4952132;28;20179;-57
2023/12/11 00:12:16;;;;;;;2.30;1.13;;;5.80;99.90;;;;;;4947104;28;20226;-57
2023/12/11 00:14:41;;;;;;;1.73;1.40;;;5.90;99.90;;;;;;4947883;28;20919;-59
2023/12/11 00:17:07;;;;;;;1.10;1.00;;;5.90;99.90;;;;;;4947397;28;20514;-58
2023/12/11 00:19:33;;;;;;;2.90;1.13;;;5.90;99.90;;;;;;4944815;28;20186;-58
2023/12/11 00:21:59;;;;;;;1.40;1.27;;;6.00;99.90;;;;;;4948310;28;20297;-57
2023/12/11 00:24:24;;;;;;;3.47;1.40;;;6.00;99.90;;;;;;4950178;28;20566;-58
2023/12/11 00:26:50;;;;;;;1.20;1.10;;;6.00;99.90;;;;;;4950603;28;20700;-57
2023/12/11 00:29:16;;;;;;;1.10;1.00;;;6.10;99.90;;;;;;4947375;28;20202;-57
2023/12/11 00:31:41;;;;;;;2.27;0.90;;;6.10;99.90;;;;;;4950974;28;20245;-57
2023/12/11 00:34:07;;;;;;;0.90;0.90;;;6.10;99.90;;;;;;4950174;28;20177;-58
2023/12/11 00:36:32;;;;;;;4.60;1.03;;;6.20;99.90;;;;;;4950142;28;20209;-57
2023/12/11 00:38:58;;;;;;;1.20;1.10;;;6.20;99.90;;;;;;4949056;28;20182;-57
2023/12/11 00:41:24;;;;;;;1.17;1.00;;;6.30;99.90;;;;;;4950007;28;20206;-59
2023/12/11 00:43:49;;;;;;;1.07;0.90;;;6.30;99.90;;;;;;4948485;28;20540;-60
2023/12/11 00:46:19;;;;;;;0.70;0.70;;;6.30;99.90;;;;;;4948045;28;20183;-58
2023/12/11 00:48:45;;;;;;;3.93;1.30;;;6.40;99.90;;;;;;4949713;28;20426;-57
2023/12/11 00:51:18;;;;;;;1.20;1.00;;;6.40;99.90;;;;;;4948154;28;20992;-57
2023/12/11 00:53:45;;;;;;;3.03;0.90;;;6.50;99.90;;;;;;4944280;28;20173;-58
2023/12/11 00:56:10;;;;;;;1.10;0.80;;;6.50;99.90;;;;;;4948552;28;20990;-58
2023/12/11 00:58:36;;;;;;;1.00;1.00;;;6.50;99.90;;;;;;4949461;28;20418;-57
2023/12/11 01:01:02;;;;;;;0.90;0.90;;;6.50;99.90;;;;;;4945045;28;20676;-57
2023/12/11 01:03:27;;;;;;;1.70;0.90;;;6.50;99.90;;;;;;4952273;28;20748;-58
2023/12/11 01:05:53;;;;;;;0.80;0.80;;;6.50;99.90;;;;;;4954151;28;20186;-58
2023/12/11 01:08:19;;;;;;;1.90;1.00;;;6.50;99.90;;;;;;4952053;28;20277;-58
2023/12/11 01:10:44;;;;;;;0.80;0.80;;;6.60;99.90;;;;;;4950786;28;20186;-58
2023/12/11 01:13:10;;;;;;;0.83;0.83;;;6.50;99.90;;;;;;4950571;28;20702;-57
2023/12/11 01:15:36;;;;;;;1.13;0.80;;;6.60;99.90;;;;;;4950244;28;20206;-57
2023/12/11 01:18:01;;;;;;;1.00;0.90;;;6.60;99.90;;;;;;4948535;28;20187;-56
2023/12/11 01:20:27;;;;;;;0.93;0.80;;;6.60;99.90;;;;;;4945245;28;20265;-58
2023/12/11 01:22:53;;;;;;;1.37;0.90;;;6.60;99.90;;;;;;4945736;28;20488;-58
2023/12/11 01:25:19;;;;;;;1.10;0.80;;;6.60;99.90;;;;;;4944685;28;20186;-58
2023/12/11 01:27:44;;;;;;;0.67;0.67;;;6.60;99.90;;;;;;4944945;28;20214;-58
2023/12/11 01:30:10;;;;;;;0.83;0.80;;;6.60;99.90;;;;;;4941285;28;20233;-58
2023/12/11 01:32:36;;;;;;;0.90;0.90;;;6.70;99.90;;;;;;4942344;28;20265;-58
2023/12/11 01:35:02;;;;;;;6.13;3.40;;;6.70;99.90;;;;;;4950802;28;20194;-57
2023/12/11 01:37:27;;;;;;;1.30;1.20;;;6.70;99.90;;;;;;4945594;28;20746;-58
2023/12/11 01:39:53;;;;;;;0.83;0.83;;;6.70;99.90;;;;;;4943979;28;20261;-59
2023/12/11 01:42:18;;;;;;;0.90;0.90;;;6.70;99.90;;;;;;4949135;28;20286;-58
2023/12/11 01:44:44;;;;;;;0.80;0.80;;;6.70;99.90;;;;;;4949514;28;20175;-58
2023/12/11 01:47:10;;;;;;;0.90;0.90;;;6.70;99.90;;;;;;4950508;28;20178;-58
2023/12/11 01:49:36;;;;;;;0.70;0.70;;;6.80;99.90;;;;;;4948968;28;20687;-58
2023/12/11 01:52:03;;;;;;;0.90;0.87;;;6.80;99.90;;;;;;4953246;28;20528;-57
2023/12/11 01:54:30;;;;;;;0.77;0.77;;;6.80;99.90;;;;;;4951380;28;20426;-58
2023/12/11 01:56:55;;;;;;;0.70;0.70;;;6.70;99.90;;;;;;4940998;28;20466;-58
2023/12/11 01:59:21;;;;;;;0.60;0.60;;;6.70;99.90;;;;;;4950789;28;20479;-57
2023/12/11 02:01:47;;;;;;;0.67;0.67;;;6.70;99.90;;;;;;4941293;28;20858;-58
2023/12/11 02:04:13;;;;;;;0.73;0.73;;;6.80;99.90;;;;;;4945030;28;20809;-58
2023/12/11 02:06:39;;;;;;;0.70;0.70;;;6.80;99.90;;;;;;4949592;28;20429;-58
2023/12/11 02:09:05;;;;;;;0.80;0.80;;;6.80;99.90;;;;;;4940653;28;20680;-57
2023/12/11 02:11:31;;;;;;;0.80;0.80;;;6.90;99.90;;;;;;4947675;28;20202;-58
2023/12/11 02:13:56;;;;;;;0.80;0.80;;;6.80;99.90;;;;;;4939769;28;20179;-58
2023/12/11 02:16:22;;;;;;;0.60;0.60;;;6.90;99.90;;;;;;4935261;28;20561;-59
2023/12/11 02:18:47;;;;;;;0.90;0.90;;;6.90;99.90;;;;;;4954758;28;20628;-59
2023/12/11 02:21:14;;;;;;;0.60;0.60;;;6.90;99.90;;;;;;4951495;28;20197;-58
2023/12/11 02:23:42;;;;;;;0.90;0.80;;;6.90;99.90;;;;;;4951888;28;20559;-58
2023/12/11 02:26:19;;;;;;;2.80;0.67;;;6.90;99.90;;;;;;4956372;28;20508;-59
2023/12/11 02:28:45;;;;;;;1.10;0.80;;;6.90;99.90;;;;;;4944746;28;20427;-58
2023/12/11 02:31:11;;;;;;;1.27;1.00;;;6.90;99.90;;;;;;4951895;28;20461;-58
2023/12/11 02:33:37;;;;;;;0.70;0.70;;;6.90;99.90;;;;;;4952807;28;20483;-58
2023/12/11 02:36:03;;;;;;;0.93;0.73;;;6.90;99.90;;;;;;4951082;28;20194;-57
2023/12/11 02:38:28;;;;;;;0.90;0.90;;;6.90;99.90;;;;;;4943678;28;20180;-60
2023/12/11 02:40:54;;;;;;;0.73;0.70;;;6.90;99.90;;;;;;4944211;28;20426;-58
2023/12/11 02:43:20;;;;;;;0.80;0.80;;;6.90;99.90;;;;;;4952827;28;20210;-58
2023/12/11 02:45:46;;;;;;;0.80;0.80;;;6.90;99.90;;;;;;4941700;28;20646;-57
2023/12/11 02:48:12;;;;;;;0.90;0.90;;;6.90;99.90;;;;;;4951641;28;20640;-58
2023/12/11 02:50:37;;;;;;;0.80;0.80;;;6.90;99.90;;;;;;4936478;28;20179;-58
2023/12/11 02:53:04;;;;;;;1.00;0.80;;;6.90;99.90;;;;;;4954226;28;20465;-57
2023/12/11 02:55:30;;;;;;;0.70;0.70;;;6.90;99.90;;;;;;4948765;28;20216;-59
2023/12/11 02:57:58;;;;;;;0.80;0.80;;;6.90;99.90;;;;;;4953388;28;20422;-58
2023/12/11 03:00:24;;;;;;;0.77;0.77;;;6.90;99.90;;;;;;4952884;28;20421;-59
2023/12/11 03:02:50;;;;;;;0.80;0.80;;;6.80;99.90;;;;;;4941666;28;20545;-58
2023/12/11 03:05:15;;;;;;;0.70;0.70;;;6.80;99.90;;;;;;4948384;28;20518;-58
2023/12/11 03:07:41;;;;;;;0.73;0.73;;;6.80;99.90;;;;;;4955965;28;20265;-58
2023/12/11 03:10:07;;;;;;;0.93;0.90;;;6.90;99.90;;;;;;4952217;28;20236;-58
2023/12/11 03:12:33;;;;;;;0.70;0.70;;;6.90;99.90;;;;;;4957239;28;20225;-58
2023/12/11 03:14:58;;;;;;;0.80;0.80;;;6.90;99.90;;;;;;4942528;28;20576;-58
2023/12/11 03:17:24;;;;;;;0.83;0.80;;;6.80;99.90;;;;;;4949774;28;20179;-58
2023/12/11 03:19:50;;;;;;;1.03;0.80;;;6.90;99.90;;;;;;4951532;28;20178;-58
2023/12/11 03:22:15;;;;;;;0.73;0.73;;;6.80;99.90;;;;;;4945812;28;20302;-56
2023/12/11 03:24:41;;;;;;;0.70;0.70;;;6.80;99.90;;;;;;4946314;28;20171;-58
2023/12/11 03:27:06;;;;;;;0.80;0.80;;;6.80;99.90;;;;;;4948716;28;20229;-58
2023/12/11 03:29:32;;;;;;;2.20;1.60;;;6.80;99.90;;;;;;4947130;28;20786;-58
2023/12/11 03:31:57;;;;;;;2.30;0.87;;;6.80;99.90;;;;;;4945065;28;20197;-58
2023/12/11 03:34:23;;;;;;;0.90;0.90;;;6.80;99.90;;;;;;4948320;28;20182;-58
2023/12/11 03:36:49;;;;;;;0.60;0.60;;;6.80;99.90;;;;;;4946718;28;20202;-57
2023/12/11 03:39:15;;;;;;;0.80;0.80;;;6.80;99.90;;;;;;4950560;28;20204;-59
2023/12/11 03:41:41;;;;;;;0.80;0.80;;;6.80;99.90;;;;;;4944474;28;20187;-58
2023/12/11 03:44:06;;;;;;;0.70;0.70;;;6.80;99.90;;;;;;4950820;28;20420;-58
2023/12/11 03:46:32;;;;;;;1.80;1.10;;;6.80;99.90;;;;;;4950201;28;20182;-59
2023/12/11 03:48:58;;;;;;;1.13;1.03;;;6.80;99.90;;;;;;4942647;28;20684;-58
2023/12/11 03:51:23;;;;;;;3.30;1.50;;;6.70;99.90;;;;;;4949220;28;20189;-58
2023/12/11 03:53:49;;;;;;;1.70;1.60;;;6.70;99.90;;;;;;4957606;28;20190;-58
2023/12/11 03:56:14;;;;;;;1.63;1.53;;;6.70;99.90;;;;;;4942922;28;20206;-59
2023/12/11 03:58:40;;;;;;;2.00;1.80;;;6.70;99.90;;;;;;4950940;28;20201;-59
2023/12/11 04:01:06;;;;;;;3.00;2.30;;;6.70;99.90;;;;;;4951327;28;20526;-58
2023/12/11 04:03:31;;;;;;;2.00;1.90;;;6.70;99.90;;;;;;4948214;28;20206;-57
2023/12/11 04:05:57;;;;;;;2.80;2.50;;;6.70;99.90;;;;;;4950688;28;20214;-59
2023/12/11 04:08:23;;;;;;;2.70;2.10;;;6.70;99.90;;;;;;4964667;28;20568;-58
2023/12/11 04:10:49;;;;;;;1.80;1.70;;;6.70;99.90;;;;;;4948254;28;20503;-58
2023/12/11 04:13:15;;;;;;;1.70;1.60;;;6.70;99.90;;;;;;4951310;28;20242;-59
2023/12/11 04:15:41;;;;;;;1.63;1.53;;;6.70;99.90;;;;;;4940333;28;20463;-58
2023/12/11 04:18:07;;;;;;;1.63;1.40;;;6.70;99.90;;;;;;4949861;28;20189;-58
2023/12/11 04:20:32;;;;;;;1.87;1.50;;;6.70;99.90;;;;;;4947908;28;20182;-57
2023/12/11 04:22:58;;;;;;;1.80;1.70;;;6.70;99.90;;;;;;4949213;28;21069;-58
2023/12/11 04:25:24;;;;;;;1.47;1.37;;;6.70;99.90;;;;;;4942635;28;20182;-58
2023/12/11 04:27:49;;;;;;;1.63;1.50;;;6.70;99.90;;;;;;4947706;28;20273;-57
2023/12/11 04:30:15;;;;;;;1.57;1.47;;;6.70;99.90;;;;;;4951404;28;20266;-58
2023/12/11 04:32:41;;;;;;;2.33;2.13;;;6.70;99.90;;;;;;4952224;28;20206;-58
2023/12/11 04:35:07;;;;;;;1.47;1.37;;;6.70;99.90;;;;;;4940750;28;20666;-58
2023/12/11 04:37:32;;;;;;;1.30;1.20;;;6.70;99.90;;;;;;4947962;28;20830;-57
2023/12/11 04:39:58;;;;;;;2.20;1.53;;;6.70;99.90;;;;;;4951020;28;20249;-58
2023/12/11 04:42:24;;;;;;;1.83;1.70;;;6.60;99.90;;;;;;4944743;28;20201;-59
2023/12/11 04:44:49;;;;;;;2.40;2.17;;;6.70;99.90;;;;;;4950188;28;20683;-58
2023/12/11 04:47:15;;;;;;;1.70;1.60;;;6.60;99.90;;;;;;4950956;28;20233;-58
2023/12/11 04:49:43;;;;;;;2.73;1.83;;;6.60;99.90;;;;;;4943526;28;20190;-59
2023/12/11 04:52:09;;;;;;;2.50;2.30;;;6.60;99.90;;;;;;4950444;28;20297;-58
2023/12/11 04:54:35;;;;;;;2.20;2.00;;;6.50;99.90;;;;;;4943126;28;20919;-58
2023/12/11 04:57:00;;;;;;;1.93;1.73;;;6.50;99.90;;;;;;4949605;28;20210;-58
2023/12/11 04:59:26;;;;;;;1.97;1.80;;;6.40;99.90;;;;;;4949678;28;20179;-58
2023/12/11 05:01:51;;;;;;;2.07;1.87;;;6.50;99.90;;;;;;4951290;28;20233;-58
2023/12/11 05:04:17;;;;;;;2.40;1.70;;;6.40;99.90;;;;;;4941924;28;20281;-57
2023/12/11 05:06:44;;;;;;;2.20;1.80;;;6.40;99.90;;;;;;4949775;28;20178;-58
2023/12/11 05:09:09;;;;;;;2.00;1.80;;;6.40;99.90;;;;;;4942747;28;20177;-58
2023/12/11 05:11:35;;;;;;;1.90;1.80;;;6.40;99.90;;;;;;4948612;28;20533;-59
2023/12/11 05:14:01;;;;;;;3.20;2.80;;;6.40;99.90;;;;;;4942510;28;20271;-58
2023/12/11 05:16:26;;;;;;;4.10;3.63;;;6.30;99.90;;;;;;4948075;28;20202;-58
2023/12/11 05:18:52;;;;;;;4.23;3.40;;;6.30;99.90;;;;;;4947175;28;20179;-58
2023/12/11 05:21:17;;;;;;;4.67;3.47;;;6.30;99.90;;;;;;4950285;28;20222;-58
2023/12/11 05:23:43;;;;;;;3.00;2.80;;;6.20;99.90;;;;;;4947622;28;20266;-58
2023/12/11 05:26:09;;;;;;;5.30;4.40;;;6.20;99.90;;;;;;4952441;28;20182;-58
2023/12/11 05:28:34;;;;;;;7.37;5.40;;;6.20;99.90;;;;;;4950962;28;20182;-57
2023/12/11 05:31:00;;;;;;;4.57;3.83;;;6.20;99.90;;;;;;4946818;28;20709;-57
2023/12/11 05:33:26;;;;;;;3.90;3.47;;;6.10;99.90;;;;;;4948023;28;20704;-58
2023/12/11 05:35:51;;;;;;;3.10;2.80;;;6.10;99.90;;;;;;4948339;28;20688;-59
2023/12/11 05:38:17;;;;;;;1.50;1.40;;;6.10;99.90;;;;;;4947567;28;20648;-57
2023/12/11 05:40:43;;;;;;;3.83;1.87;;;6.00;99.90;;;;;;4944345;28;20211;-59
2023/12/11 05:43:08;;;;;;;3.37;2.97;;;6.00;99.90;;;;;;4950777;28;20201;-59
2023/12/11 05:45:34;;;;;;;4.07;3.40;;;6.00;99.90;;;;;;4945523;28;20629;-58
2023/12/11 05:47:59;;;;;;;7.17;3.80;;;5.90;99.90;;;;;;4948634;28;20664;-58
2023/12/11 05:50:25;;;;;;;4.70;3.43;;;5.90;99.90;;;;;;4951253;28;20254;-58
2023/12/11 05:52:51;;;;;;;9.83;4.60;;;5.80;99.90;;;;;;4953123;28;20249;-59
2023/12/11 05:55:16;;;;;;;6.63;5.33;;;5.80;99.90;;;;;;4950167;28;20257;-56
2023/12/11 05:57:42;;;;;;;6.00;4.50;;;5.80;99.90;;;;;;4947216;28;20839;-58
2023/12/11 06:00:08;;;;;;;4.90;4.23;;;5.80;99.90;;;;;;4957402;28;20226;-58
2023/12/11 06:02:33;;;;;;;6.87;4.93;;;5.90;99.90;;;;;;4953213;28;20845;-57
2023/12/11 06:04:59;;;;;;;5.47;4.87;;;5.90;99.90;;;;;;4948577;28;20430;-58
2023/12/11 06:07:25;;;;;;;6.33;4.80;;;5.90;99.90;;;;;;4953455;28;20539;-58
2023/12/11 06:09:50;;;;;;;6.67;5.23;;;5.90;99.90;;;;;;4950956;28;20246;-58
2023/12/11 06:12:16;;;;;;;6.57;4.67;;;5.90;99.90;;;;;;4951548;28;20696;-59
2023/12/11 06:14:42;;;;;;;6.00;4.60;;;6.00;99.90;;;;;;4952086;28;20182;-58
2023/12/11 06:17:08;;;;;;;10.13;4.50;;;6.00;99.90;;;;;;4955149;28;20194;-59
2023/12/11 06:19:34;;;;;;;6.47;4.10;;;6.00;99.90;;;;;;4952423;28;20262;-57
2023/12/11 06:22:00;;;;;;;6.23;4.40;;;6.00;99.90;;;;;;4944324;28;20554;-58
2023/12/11 06:24:25;;;;;;;10.33;6.10;;;5.90;99.90;;;;;;4953590;28;20185;-58
2023/12/11 06:26:51;;;;;;;8.53;5.90;;;5.90;99.90;;;;;;4949300;28;20186;-58
2023/12/11 06:29:16;;;;;;;9.77;5.40;;;5.80;99.90;;;;;;4953965;28;20201;-58
2023/12/11 06:31:42;;;;;;;11.63;6.83;;;5.80;99.90;;;;;;4950304;28;20206;-58
2023/12/11 06:34:08;;;;;;;10.40;6.80;;;5.80;99.90;;;;;;4957087;28;20182;-58
2023/12/11 06:36:33;;;;;;;9.17;6.20;;;5.80;99.90;;;;;;4953095;28;20218;-58
2023/12/11 06:38:59;;;;;;;12.80;6.30;;;5.70;99.90;;;;;;4948256;28;20174;-59
2023/12/11 06:41:24;;;;;;;13.43;6.60;;;5.70;99.90;;;;;;4951826;28;20193;-60
2023/12/11 06:43:54;;;;;;;10.60;5.60;;;5.70;99.90;;;;;;4953665;28;20641;-58
2023/12/11 06:46:20;;;;;;;9.07;6.30;;;5.70;99.90;;;;;;4951104;28;20217;-58
2023/12/11 06:48:46;;;;;;;7.63;5.13;;;5.70;99.90;;;;;;4950000;28;20940;-58
2023/12/11 06:51:16;;;;;;;5.10;3.90;;;5.80;99.90;;;;;;4953342;28;20565;-58
2023/12/11 06:53:41;;;;;;;5.73;4.30;;;5.90;99.90;;;;;;4951525;28;20203;-59
2023/12/11 06:56:07;;;;;;;3.50;3.03;;;5.90;99.90;;;;;;4947971;28;20469;-58
2023/12/11 06:58:33;;;;;;;7.27;5.50;;;6.10;99.90;;;;;;4952924;28;20178;-58
2023/12/11 07:01:00;;;;;;;7.27;3.97;;;6.20;99.90;;;;;;4951784;28;20429;-58
2023/12/11 07:03:26;;;;;;;7.03;3.40;;;6.30;99.90;;;;;;4951588;28;20280;-58
2023/12/11 07:05:51;;;;;;;10.23;4.40;;;6.30;99.90;;;;;;4949737;28;21177;-58
2023/12/11 07:08:17;;;;;;;8.60;5.00;;;6.40;99.90;;;;;;4948449;28;20422;-57
2023/12/11 07:10:43;;;;;;;6.60;4.87;;;6.40;99.90;;;;;;4950977;28;20194;-57
2023/12/11 07:13:08;;;;;;;4.70;4.30;;;6.40;99.90;;;;;;4939247;28;20205;-58
2023/12/11 07:15:34;;;;;;;4.90;3.93;;;6.40;99.90;;;;;;4945334;28;20632;-59
2023/12/11 07:18:00;;;;;;;8.00;5.53;;;6.50;99.90;;;;;;4950362;28;20680;-58
2023/12/11 07:20:25;;;;;;;6.93;4.07;;;6.40;99.90;;;;;;4950195;28;20185;-58
2023/12/11 07:22:51;;;;;;;6.23;4.60;;;6.40;99.90;;;;;;4949139;28;20265;-58
2023/12/11 07:25:17;;;;;;;8.73;4.53;;;6.40;99.90;;;;;;4953061;28;20273;-59
2023/12/11 07:27:45;;;;;;;8.10;4.50;;;6.30;99.90;;;;;;4951595;28;20178;-58
2023/12/11 07:30:13;;;;;;;6.83;3.83;;;6.30;99.90;;;;;;4951419;28;20458;-58
2023/12/11 07:32:39;;;;;;;7.83;4.67;;;6.30;99.90;;;;;;4949076;28;20512;-58
2023/12/11 07:35:08;;;;;;;7.10;4.30;;;6.20;99.90;;;;;;4950376;28;20442;-58
2023/12/11 07:37:33;;;;;;;8.63;5.47;;;6.20;99.90;;;;;;4944337;28;20185;-57
2023/12/11 07:39:59;;;;;;;12.33;6.47;;;6.10;99.90;;;;;;4953788;28;20438;-58
2023/12/11 07:42:25;;;;;;;11.10;5.80;;;6.00;99.90;;;;;;4952905;28;20677;-59
2023/12/11 07:44:50;;;;;;;12.37;6.20;;;6.00;99.90;;;;;;4952778;28;20233;-57
2023/12/11 07:47:16;;;;;;;15.60;6.30;;;5.90;99.90;;;;;;4951315;28;20217;-58
2023/12/11 07:49:41;;;;;;;9.03;5.40;;;5.80;99.90;;;;;;4950827;28;20611;-58
2023/12/11 07:52:08;;;;;;;6.90;5.20;;;5.80;99.90;;;;;;4947881;28;20210;-58
2023/12/11 07:54:33;;;;;;;11.60;5.90;;;5.80;99.90;;;;;;4948591;28;20186;-57
2023/12/11 07:56:59;;;;;;;9.23;5.43;;;5.80;99.90;;;;;;4951286;28;20484;-58
2023/12/11 07:59:24;;;;;;;13.23;6.70;;;5.80;99.90;;;;;;4949916;28;20828;-58
2023/12/11 08:01:52;;;;;;;11.73;7.00;;;5.80;99.90;;;;;;4950260;28;20257;-58
2023/12/11 08:04:17;;;;;;;13.80;7.80;;;5.80;99.90;;;;;;4949961;28;20175;-58
2023/12/11 08:06:43;;;;;;;11.80;7.60;;;5.80;99.90;;;;;;4947024;28;20442;-58
2023/12/11 08:09:09;;;;;;;12.20;6.90;;;5.80;99.90;;;;;;4952036;28;20178;-58
2023/12/11 08:11:35;;;;;;;11.93;6.93;;;5.80;99.90;;;;;;4950183;28;20218;-59
2023/12/11 08:14:01;;;;;;;12.43;6.97;;;5.70;99.90;;;;;;4944116;28;20668;-58
2023/12/11 08:16:26;;;;;;;9.40;6.00;;;5.70;99.90;;;;;;4949479;28;20461;-58
2023/12/11 08:18:52;;;;;;;12.53;6.60;;;5.80;99.90;;;;;;4951325;28;20182;-58
2023/12/11 08:21:18;;;;;;;10.07;6.13;;;5.80;99.90;;;;;;4950142;28;20611;-58
2023/12/11 08:23:44;;;;;;;13.17;7.37;;;5.90;99.90;;;;;;4950900;28;20630;-61
2023/12/11 08:26:10;;;;;;;11.27;7.10;;;5.90;99.90;;;;;;4946798;28;20430;-58
2023/12/11 08:28:36;;;;;;;18.13;8.60;;;5.90;99.90;;;;;;4951230;28;20232;-58
2023/12/11 08:31:03;;;;;;;15.30;9.00;;;5.90;99.90;;;;;;4948377;28;20855;-59
2023/12/11 08:33:29;;;;;;;15.50;8.57;;;6.00;99.90;;;;;;4954355;28;20206;-59
2023/12/11 08:35:55;;;;;;;12.20;8.70;;;6.00;99.90;;;;;;4950810;28;20832;-58
2023/12/11 08:38:22;;;;;;;9.07;6.17;;;6.00;99.90;;;;;;4950852;28;20422;-59
2023/12/11 08:40:48;;;;;;;10.97;7.33;;;6.00;99.90;;;;;;4950846;28;20174;-58
2023/12/11 08:43:13;;;;;;;12.43;6.27;;;6.10;99.90;;;;;;4951636;28;20493;-59
2023/12/11 08:45:39;;;;;;;16.77;7.60;;;6.20;99.90;;;;;;4950449;28;20182;-58
2023/12/11 08:48:05;;;;;;;11.00;5.43;;;6.30;99.90;;;;;;4950148;28;20633;-59
2023/12/11 08:50:31;;;;;;;11.23;5.97;;;6.30;99.90;;;;;;4949891;28;20185;-59
2023/12/11 08:52:59;;;;;;;17.07;9.90;;;6.50;99.90;;;;;;4948739;28;20434;-58
2023/12/11 08:55:24;;;;;;;19.73;9.37;;;6.60;99.90;;;;;;4948351;28;20468;-58
2023/12/11 08:57:50;;;;;;;13.83;7.20;;;6.70;99.90;;;;;;4948594;28;20435;-58
2023/12/11 09:00:16;;;;;;;13.00;6.40;;;6.70;99.90;;;;;;4946304;28;20770;-57
2023/12/11 09:02:42;;;;;;;9.60;4.53;;;6.70;99.90;;;;;;4950557;28;20611;-58
2023/12/11 09:05:08;;;;;;;9.23;4.77;;;6.70;99.90;;;;;;4951109;28;20442;-58
2023/12/11 09:07:34;;;;;;;7.10;4.77;;;6.80;99.90;;;;;;4950279;28;20673;-57
2023/12/11 09:10:00;;;;;;;8.23;4.93;;;6.90;99.90;;;;;;4949287;28;20422;-56
2023/12/11 09:12:26;;;;;;;9.67;5.70;;;6.80;99.90;;;;;;4950749;28;20446;-58
2023/12/11 09:14:52;;;;;;;8.93;4.67;;;6.90;99.90;;;;;;4949818;28;21209;-58
2023/12/11 09:17:18;;;;;;;9.27;4.13;;;6.90;99.90;;;;;;4957298;28;20214;-58
2023/12/11 09:19:44;;;;;;;11.33;3.57;;;6.90;99.90;;;;;;4949723;28;20171;-59
2023/12/11 09:22:10;;;;;;;3.30;1.90;;;6.90;99.90;;;;;;4946897;28;20478;-58
2023/12/11 09:24:36;;;;;;;5.47;3.23;;;6.90;99.90;;;;;;4946032;28;20178;-58
2023/12/11 09:27:03;;;;;;;5.90;3.17;;;7.00;99.90;;;;;;4943387;28;20426;-58
2023/12/11 09:29:29;;;;;;;7.50;3.53;;;7.00;99.90;;;;;;4942359;28;20446;-58
2023/12/11 09:31:54;;;;;;;5.50;4.20;;;7.00;99.90;;;;;;4945576;28;20518;-59
2023/12/11 09:34:20;;;;;;;4.37;3.20;;;7.10;99.90;;;;;;4947957;28;20715;-58
2023/12/11 09:36:46;;;;;;;4.80;3.60;;;7.10;99.90;;;;;;4950890;28;20206;-59
2023/12/11 09:39:12;;;;;;;2.40;1.80;;;7.20;99.90;;;;;;4948116;28;20194;-58
2023/12/11 09:41:39;;;;;;;3.73;1.93;;;7.20;99.90;;;;;;4947733;28;20182;-59
2023/12/11 09:44:05;;;;;;;1.10;1.03;;;7.30;99.90;;;;;;4945037;28;20438;-58
2023/12/11 09:46:38;;;;;;;1.30;1.20;;;7.40;99.90;;;;;;4945004;28;20437;-58
2023/12/11 09:49:05;;;;;;;2.10;1.53;;;7.40;99.90;;;;;;4945840;28;20549;-57
2023/12/11 09:51:31;;;;;;;1.17;1.07;;;7.40;99.90;;;;;;4950889;28;21150;-60
2023/12/11 09:53:57;;;;;;;1.73;1.60;;;7.50;99.90;;;;;;4947629;28;20969;-58
2023/12/11 09:56:23;;;;;;;2.00;1.60;;;7.50;99.90;;;;;;4949005;28;20464;-59
2023/12/11 09:58:51;;;;;;;1.10;0.90;;;7.50;99.90;;;;;;4946258;28;20775;-58
2023/12/11 10:01:18;;;;;;;1.53;0.80;;;7.50;99.90;;;;;;4953157;28;20433;-59
2023/12/11 10:03:43;;;;;;;1.87;0.90;;;7.60;99.90;;;;;;4944487;28;20445;-59
2023/12/11 10:06:09;;;;;;;1.30;1.07;;;7.60;99.90;;;;;;4948490;28;20442;-59
2023/12/11 10:08:42;;;;;;;3.63;1.73;;;7.60;99.90;;;;;;4949172;28;20211;-59
2023/12/11 10:11:09;;;;;;;7.27;2.17;;;7.70;99.90;;;;;;4946407;28;20182;-58
2023/12/11 10:13:35;;;;;;;2.90;1.50;;;7.70;99.90;;;;;;4949876;28;20489;-58
2023/12/11 10:16:01;;;;;;;2.23;1.37;;;7.70;99.90;;;;;;4946550;28;20474;-58
2023/12/11 10:18:27;;;;;;;1.97;1.20;;;7.70;99.90;;;;;;4943859;28;20421;-58
2023/12/11 10:20:54;;;;;;;1.37;1.27;;;7.70;99.90;;;;;;4947036;28;20182;-58
2023/12/11 10:23:23;;;;;;;1.50;1.40;;;7.80;99.90;;;;;;4949013;28;20333;-58
2023/12/11 10:25:52;;;;;;;1.10;1.10;;;7.80;99.90;;;;;;4946719;28;20445;-58
2023/12/11 10:28:23;;;;;;;1.20;1.10;;;7.80;99.90;;;;;;4955098;28;20430;-57
2023/12/11 10:30:54;;;;;;;2.30;1.00;;;7.80;99.90;;;;;;4943910;28;20422;-58
2023/12/11 10:33:21;;;;;;;4.63;1.13;;;7.80;99.90;;;;;;4942908;28;20446;-58
2023/12/11 10:35:48;;;;;;;10.93;2.40;;;7.90;99.90;;;;;;4948859;28;20462;-58
2023/12/11 10:38:21;;;;;;;9.23;1.30;;;7.90;99.90;;;;;;4944469;28;21163;-55
2023/12/11 10:40:49;;;;;;;3.20;0.97;;;7.90;99.90;;;;;;4950118;28;20413;-54
2023/12/11 10:43:15;;;;;;;2.17;1.40;;;8.00;99.90;;;;;;4953233;28;20433;-54
2023/12/11 10:45:41;;;;;;;1.27;1.13;;;8.00;99.90;;;;;;4950216;28;20434;-55
2023/12/11 10:48:07;;;;;;;1.23;1.07;;;8.10;99.90;;;;;;4956585;28;20433;-55
2023/12/11 10:50:33;;;;;;;1.87;1.13;;;8.10;99.90;;;;;;4950893;28;20182;-54
2023/12/11 10:53:03;;;;;;;1.40;1.00;;;8.10;99.90;;;;;;4951449;28;20441;-55
2023/12/11 10:55:30;;;;;;;0.97;0.90;;;8.10;99.90;;;;;;4950850;28;20468;-55
2023/12/11 10:58:01;;;;;;;0.87;0.87;;;8.10;99.90;;;;;;4951175;28;21076;-54
2023/12/11 11:00:30;;;;;;;3.30;0.97;;;8.10;99.90;;;;;;4946035;28;20438;-54
2023/12/11 11:02:57;;;;;;;12.00;1.40;;;8.10;99.90;;;;;;4951288;28;20446;-57
2023/12/11 11:05:25;;;;;;;5.13;1.53;;;8.10;99.90;;;;;;4947572;28;20442;-55
2023/12/11 11:08:11;;;;;;;1.57;1.30;;;8.00;99.90;;;;;;4951995;28;20490;-55
2023/12/11 11:10:45;;;;;;;1.90;1.30;;;8.00;99.90;;;;;;4948388;28;20807;-56
2023/12/11 11:13:21;;;;;;;3.43;1.67;;;8.00;99.90;;;;;;4945461;28;20795;-56
2023/12/11 11:15:52;;;;;;;3.50;1.80;;;8.00;99.90;;;;;;4949552;28;20806;-54
2023/12/11 11:18:18;;;;;;;1.40;1.30;;;7.90;99.90;;;;;;4945215;28;20438;-56
2023/12/11 11:21:12;;;;;;;1.13;0.93;;;7.90;99.90;;;;;;4949416;28;20937;-53
2023/12/11 11:23:42;;;;;;;0.87;0.87;;;7.90;99.90;;;;;;4952471;28;20261;-54
2023/12/11 11:26:35;;;;;;;0.73;0.70;;;7.90;99.90;;;;;;4949652;28;20453;-55
2023/12/11 11:29:03;;;;;;;3.83;1.10;;;7.90;99.90;;;;;;4948662;28;20418;-54
2023/12/11 11:31:53;;;;;;;1.10;1.00;;;8.00;99.90;;;;;;4950327;28;20434;-55
2023/12/11 11:34:40;;;;;;;0.90;0.90;;;8.00;99.90;;;;;;4945510;28;20450;-55
2023/12/11 11:37:17;;;;;;;0.80;0.80;;;8.10;99.90;;;;;;4951309;28;20469;-55
2023/12/11 11:39:59;;;;;;;1.33;1.00;;;8.10;99.90;;;;;;4946938;28;20446;-52
2023/12/11 11:42:28;;;;;;;1.50;1.37;;;8.10;99.90;;;;;;4945711;28;20453;-54
2023/12/11 11:45:02;;;;;;;1.80;1.47;;;8.10;99.90;;;;;;4950154;28;20858;-53
2023/12/11 11:47:29;;;;;;;1.50;1.30;;;8.10;99.90;;;;;;4950059;28;20438;-54
2023/12/11 11:50:06;;;;;;;1.40;1.30;;;8.10;99.90;;;;;;4946436;28;20430;-54
2023/12/11 11:52:35;;;;;;;1.10;1.00;;;8.00;99.90;;;;;;4948792;28;20811;-53
2023/12/11 11:55:30;;;;;;;0.97;0.97;;;8.00;99.90;;;;;;4957014;28;20426;-57
2023/12/11 11:57:56;;;;;;;1.50;1.03;;;8.00;99.90;;;;;;4940153;28;20489;-57
2023/12/11 12:00:28;;;;;;;1.07;1.00;;;8.00;99.90;;;;;;4951322;28;20422;-56
2023/12/11 12:03:03;;;;;;;1.87;1.10;;;8.00;99.90;;;;;;4949620;28;20728;-53
2023/12/11 12:05:29;;;;;;;1.30;1.20;;;8.00;99.90;;;;;;4942946;28;20435;-57
2023/12/11 12:07:54;;;;;;;1.03;1.00;;;7.90;99.90;;;;;;4949953;28;20448;-55
2023/12/11 12:10:20;;;;;;;1.40;1.23;;;8.00;99.90;;;;;;4947717;28;20199;-62
2023/12/11 12:12:52;;;;;;;1.33;1.10;;;8.00;99.90;;;;;;4950891;28;20191;-55
2023/12/11 12:15:19;;;;;;;1.27;1.00;;;8.00;99.90;;;;;;4944476;28;20266;-55
2023/12/11 12:17:45;;;;;;;1.30;1.20;;;8.00;99.90;;;;;;4935720;28;20877;-54
2023/12/11 12:20:18;;;;;;;9.17;1.47;;;8.00;99.90;;;;;;4946792;28;20466;-55
2023/12/11 12:22:55;;;;;;;3.80;1.00;;;8.00;99.90;;;;;;4945894;28;20466;-59
2023/12/11 12:25:20;;;;;;;1.13;1.00;;;8.10;99.90;;;;;;4949019;28;20489;-53
2023/12/11 12:27:46;;;;;;;1.60;1.20;;;8.10;99.90;;;;;;4951774;28;20502;-54
2023/12/11 12:30:13;;;;;;;0.97;0.97;;;8.10;99.90;;;;;;4952451;28;20179;-55
2023/12/11 12:32:39;;;;;;;4.63;1.30;;;8.00;99.90;;;;;;4951498;28;20205;-53
2023/12/11 12:35:07;;;;;;;1.50;1.10;;;8.10;99.90;;;;;;4953722;28;20503;-56
2023/12/11 12:37:32;;;;;;;2.30;1.30;;;8.10;99.90;;;;;;4949551;28;20462;-54
2023/12/11 12:39:58;;;;;;;2.30;1.33;;;8.00;99.90;;;;;;4940646;28;20418;-55
2023/12/11 12:42:30;;;;;;;2.93;1.47;;;8.00;99.90;;;;;;4947387;28;20203;-55
2023/12/11 12:44:56;;;;;;;4.30;1.73;;;8.00;99.90;;;;;;4940314;28;20644;-55
2023/12/11 12:47:21;;;;;;;3.03;1.23;;;8.00;99.90;;;;;;4949896;28;20478;-55
2023/12/11 12:49:47;;;;;;;1.87;1.50;;;8.10;99.90;;;;;;4948677;28;20529;-54
2023/12/11 12:52:22;;;;;;;5.60;1.20;;;8.10;99.90;;;;;;4946649;28;20256;-53